sensor_id;sensor_type;location;lat;lon;timestamp;pressure;altitude;pressure_sealevel;temperature;humidity
77110;BME280;66062;52.464;16.922;2023-02-08T00:00:24;103375.88;;;-1.06;75.01
77110;BME280;66062;52.464;16.922;2023-02-08T00:02:51;103373.28;;;-1.09;74.81
77110;BME280;66062;52.464;16.922;2023-02-08T00:05:17;103374.97;;;-1.26;75.46
77110;BME280;66062;52.464;16.922;2023-02-08T00:07:43;103374.97;;;-1.34;75.42
77110;BME280;66062;52.464;16.922;2023-02-08T00:10:09;103377.63;;;-1.23;75.62
77110;BME280;66062;52.464;16.922;2023-02-08T00:12:36;103377.63;;;-1.18;75.17
77110;BME280;66062;52.464;16.922;2023-02-08T00:15:03;103380.28;;;-1.08;75.08
77110;BME280;66062;52.464;16.922;2023-02-08T00:17:29;103388.13;;;-1.06;74.82
77110;BME280;66062;52.464;16.922;2023-02-08T00:19:55;103380.28;;;-1.08;74.88
77110;BME280;66062;52.464;16.922;2023-02-08T00:22:20;103381.16;;;-1.03;74.72
77110;BME280;66062;52.464;16.922;2023-02-08T00:24:46;103379.38;;;-1.05;74.75
77110;BME280;66062;52.464;16.922;2023-02-08T00:27:12;103382.00;;;-1.16;74.83
77110;BME280;66062;52.464;16.922;2023-02-08T00:29:41;103377.63;;;-1.15;74.99
77110;BME280;66062;52.464;16.922;2023-02-08T00:32:06;103384.59;;;-1.30;75.07
77110;BME280;66062;52.464;16.922;2023-02-08T00:34:32;103382.00;;;-1.22;74.85
77110;BME280;66062;52.464;16.922;2023-02-08T00:37:00;103382.84;;;-1.24;74.98
77110;BME280;66062;52.464;16.922;2023-02-08T00:39:25;103377.59;;;-1.21;75.34
77110;BME280;66062;52.464;16.922;2023-02-08T00:41:51;103372.38;;;-1.21;75.09
77110;BME280;66062;52.464;16.922;2023-02-08T00:44:16;103375.88;;;-1.15;74.97
77110;BME280;66062;52.464;16.922;2023-02-08T00:46:43;103369.75;;;-1.20;74.77
77110;BME280;66062;52.464;16.922;2023-02-08T00:49:08;103360.13;;;-1.35;75.46
77110;BME280;66062;52.464;16.922;2023-02-08T00:51:34;103369.72;;;-1.41;76.87
77110;BME280;66062;52.464;16.922;2023-02-08T00:53:59;103368.88;;;-1.39;75.86
77110;BME280;66062;52.464;16.922;2023-02-08T00:56:24;103379.31;;;-1.43;76.11
77110;BME280;66062;52.464;16.922;2023-02-08T00:58:50;103381.06;;;-1.48;76.58
77110;BME280;66062;52.464;16.922;2023-02-08T01:01:15;103381.03;;;-1.51;75.49
77110;BME280;66062;52.464;16.922;2023-02-08T01:03:42;103379.31;;;-1.46;75.43
77110;BME280;66062;52.464;16.922;2023-02-08T01:06:13;103386.28;;;-1.45;75.33
77110;BME280;66062;52.464;16.922;2023-02-08T01:08:39;103389.72;;;-1.64;75.73
77110;BME280;66062;52.464;16.922;2023-02-08T01:11:16;103382.78;;;-1.58;75.49
77110;BME280;66062;52.464;16.922;2023-02-08T01:13:42;103387.13;;;-1.52;74.80
77110;BME280;66062;52.464;16.922;2023-02-08T01:19:04;103392.34;;;-1.61;75.72
77110;BME280;66062;52.464;16.922;2023-02-08T01:21:36;103395.84;;;-1.59;74.88
77110;BME280;66062;52.464;16.922;2023-02-08T01:24:02;103399.31;;;-1.66;76.09
77110;BME280;66062;52.464;16.922;2023-02-08T01:26:27;103403.69;;;-1.61;75.77
77110;BME280;66062;52.464;16.922;2023-02-08T01:28:54;103404.56;;;-1.65;75.96
77110;BME280;66062;52.464;16.922;2023-02-08T01:31:22;103397.59;;;-1.55;75.88
77110;BME280;66062;52.464;16.922;2023-02-08T01:33:48;103409.81;;;-1.63;76.08
77110;BME280;66062;52.464;16.922;2023-02-08T01:36:14;103410.72;;;-1.54;75.66
77110;BME280;66062;52.464;16.922;2023-02-08T01:38:41;103406.28;;;-1.62;76.01
77110;BME280;66062;52.464;16.922;2023-02-08T01:41:12;103403.69;;;-1.65;76.58
77110;BME280;66062;52.464;16.922;2023-02-08T01:46:47;103405.44;;;-1.60;76.37
77110;BME280;66062;52.464;16.922;2023-02-08T01:51:49;103401.09;;;-1.59;76.78
77110;BME280;66062;52.464;16.922;2023-02-08T01:54:17;103403.72;;;-1.47;75.98
77110;BME280;66062;52.464;16.922;2023-02-08T01:56:45;103406.34;;;-1.50;76.38
77110;BME280;66062;52.464;16.922;2023-02-08T01:59:21;103408.94;;;-1.61;76.30
77110;BME280;66062;52.464;16.922;2023-02-08T02:01:51;103404.50;;;-1.76;77.04
77110;BME280;66062;52.464;16.922;2023-02-08T02:04:19;103413.28;;;-1.64;76.50
77110;BME280;66062;52.464;16.922;2023-02-08T02:06:48;103414.13;;;-1.67;76.43
77110;BME280;66062;52.464;16.922;2023-02-08T02:09:41;103405.38;;;-1.72;76.31
77110;BME280;66062;52.464;16.922;2023-02-08T02:12:09;103408.03;;;-1.70;76.63
77110;BME280;66062;52.464;16.922;2023-02-08T02:14:36;103411.47;;;-1.84;77.19
77110;BME280;66062;52.464;16.922;2023-02-08T02:17:03;103409.75;;;-1.76;77.20
77110;BME280;66062;52.464;16.922;2023-02-08T02:25:33;103406.31;;;-1.59;77.25
77110;BME280;66062;52.464;16.922;2023-02-08T02:28:28;103405.41;;;-1.67;77.21
77110;BME280;66062;52.464;16.922;2023-02-08T02:42:00;103400.06;;;-1.87;77.94
77110;BME280;66062;52.464;16.922;2023-02-08T02:45:12;103401.06;;;-1.68;76.88
77110;BME280;66062;52.464;16.922;2023-02-08T02:52:41;103401.88;;;-1.77;77.59
77110;BME280;66062;52.464;16.922;2023-02-08T02:55:14;103407.19;;;-1.63;77.10
77110;BME280;66062;52.464;16.922;2023-02-08T02:57:43;103395.84;;;-1.64;76.86
77110;BME280;66062;52.464;16.922;2023-02-08T03:00:15;103398.22;;;-2.08;78.62
77110;BME280;66062;52.464;16.922;2023-02-08T03:02:43;103399.19;;;-1.91;78.52
77110;BME280;66062;52.464;16.922;2023-02-08T03:05:10;103395.75;;;-1.85;77.58
77110;BME280;66062;52.464;16.922;2023-02-08T03:19:35;103424.44;;;-2.03;79.43
77110;BME280;66062;52.464;16.922;2023-02-08T03:22:12;103423.59;;;-1.92;79.17
77110;BME280;66062;52.464;16.922;2023-02-08T03:24:59;103431.50;;;-1.83;78.57
77110;BME280;66062;52.464;16.922;2023-02-08T03:30:22;103428.91;;;-1.77;78.61
77110;BME280;66062;52.464;16.922;2023-02-08T03:33:16;103432.44;;;-1.72;77.89
77110;BME280;66062;52.464;16.922;2023-02-08T03:35:56;103430.69;;;-1.79;78.50
77110;BME280;66062;52.464;16.922;2023-02-08T03:38:27;103432.41;;;-1.81;78.49
77110;BME280;66062;52.464;16.922;2023-02-08T03:40:55;103434.97;;;-1.87;78.74
77110;BME280;66062;52.464;16.922;2023-02-08T03:43:27;103431.53;;;-1.84;79.02
77110;BME280;66062;52.464;16.922;2023-02-08T03:46:05;103435.91;;;-1.73;78.69
77110;BME280;66062;52.464;16.922;2023-02-08T03:48:36;103426.28;;;-1.84;78.64
77110;BME280;66062;52.464;16.922;2023-02-08T03:51:03;103432.44;;;-1.70;77.87
77110;BME280;66062;52.464;16.922;2023-02-08T03:53:30;103431.53;;;-1.84;78.49
77110;BME280;66062;52.464;16.922;2023-02-08T03:56:10;103427.16;;;-1.82;78.08
77110;BME280;66062;52.464;16.922;2023-02-08T03:58:46;103433.19;;;-1.95;78.78
77110;BME280;66062;52.464;16.922;2023-02-08T04:01:17;103428.00;;;-1.88;78.47
77110;BME280;66062;52.464;16.922;2023-02-08T04:03:46;103437.56;;;-1.93;78.76
77110;BME280;66062;52.464;16.922;2023-02-08T04:06:15;103434.13;;;-1.89;78.75
77110;BME280;66062;52.464;16.922;2023-02-08T04:08:40;103428.88;;;-1.89;78.51
77110;BME280;66062;52.464;16.922;2023-02-08T04:11:06;103427.13;;;-1.87;78.80
77110;BME280;66062;52.464;16.922;2023-02-08T04:13:31;103435.91;;;-1.73;78.20
77110;BME280;66062;52.464;16.922;2023-02-08T04:15:57;103424.63;;;-1.68;78.11
77110;BME280;66062;52.464;16.922;2023-02-08T04:18:22;103426.25;;;-1.87;78.55
77110;BME280;66062;52.464;16.922;2023-02-08T04:20:49;103419.16;;;-2.08;79.43
77110;BME280;66062;52.464;16.922;2023-02-08T04:23:14;103430.53;;;-2.01;79.11
77110;BME280;66062;52.464;16.922;2023-02-08T04:25:40;103438.38;;;-2.03;79.56
77110;BME280;66062;52.464;16.922;2023-02-08T04:28:05;103432.31;;;-1.96;78.74
77110;BME280;66062;52.464;16.922;2023-02-08T04:30:30;103433.22;;;-1.89;78.37
77110;BME280;66062;52.464;16.922;2023-02-08T04:32:56;103436.69;;;-1.92;78.78
77110;BME280;66062;52.464;16.922;2023-02-08T04:35:22;103438.44;;;-1.92;78.40
77110;BME280;66062;52.464;16.922;2023-02-08T04:37:47;103435.69;;;-2.15;79.46
77110;BME280;66062;52.464;16.922;2023-02-08T04:40:13;103438.34;;;-2.09;79.26
77110;BME280;66062;52.464;16.922;2023-02-08T04:42:38;103435.75;;;-2.06;79.25
77110;BME280;66062;52.464;16.922;2023-02-08T04:45:04;103435.84;;;-1.91;78.72
77110;BME280;66062;52.464;16.922;2023-02-08T04:47:29;103434.97;;;-1.90;79.04
77110;BME280;66062;52.464;16.922;2023-02-08T04:49:55;103438.44;;;-1.94;79.05
77110;BME280;66062;52.464;16.922;2023-02-08T04:52:20;103431.44;;;-1.99;79.11
77110;BME280;66062;52.464;16.922;2023-02-08T04:54:45;103431.47;;;-1.90;79.08
77110;BME280;66062;52.464;16.922;2023-02-08T04:57:12;103436.75;;;-1.81;78.30
77110;BME280;66062;52.464;16.922;2023-02-08T04:59:38;103437.56;;;-1.91;78.71
77110;BME280;66062;52.464;16.922;2023-02-08T05:02:03;103435.84;;;-1.91;78.88
77110;BME280;66062;52.464;16.922;2023-02-08T05:04:29;103442.78;;;-1.99;78.92
77110;BME280;66062;52.464;16.922;2023-02-08T05:06:55;103438.44;;;-1.94;79.39
77110;BME280;66062;52.464;16.922;2023-02-08T05:09:20;103452.44;;;-1.86;77.82
77110;BME280;66062;52.464;16.922;2023-02-08T05:11:45;103448.00;;;-1.99;77.50
77110;BME280;66062;52.464;16.922;2023-02-08T05:14:11;103448.84;;;-2.01;77.77
77110;BME280;66062;52.464;16.922;2023-02-08T05:16:36;103445.38;;;-1.99;77.42
77110;BME280;66062;52.464;16.922;2023-02-08T05:19:02;103444.50;;;-2.04;77.23
77110;BME280;66062;52.464;16.922;2023-02-08T05:21:27;103447.97;;;-2.03;77.53
77110;BME280;66062;52.464;16.922;2023-02-08T05:23:52;103449.66;;;-2.11;77.95
77110;BME280;66062;52.464;16.922;2023-02-08T05:26:18;103451.34;;;-2.17;78.51
77110;BME280;66062;52.464;16.922;2023-02-08T05:28:44;103454.88;;;-2.13;78.53
77110;BME280;66062;52.464;16.922;2023-02-08T05:31:11;103450.53;;;-2.08;78.10
77110;BME280;66062;52.464;16.922;2023-02-08T05:33:37;103458.44;;;-2.02;78.40
77110;BME280;66062;52.464;16.922;2023-02-08T05:36:03;103454.06;;;-2.04;77.94
77110;BME280;66062;52.464;16.922;2023-02-08T05:38:28;103464.66;;;-1.85;76.89
77110;BME280;66062;52.464;16.922;2023-02-08T05:40:54;103466.34;;;-1.93;76.74
77110;BME280;66062;52.464;16.922;2023-02-08T05:43:19;103468.94;;;-1.96;76.75
77110;BME280;66062;52.464;16.922;2023-02-08T05:45:44;103468.13;;;-1.90;76.70
77110;BME280;66062;52.464;16.922;2023-02-08T05:48:10;103469.88;;;-1.86;76.38
77110;BME280;66062;52.464;16.922;2023-02-08T05:50:35;103471.53;;;-2.03;76.96
77110;BME280;66062;52.464;16.922;2023-02-08T05:53:00;103459.25;;;-2.13;77.48
77110;BME280;66062;52.464;16.922;2023-02-08T05:55:26;103471.50;;;-2.05;76.94
77110;BME280;66062;52.464;16.922;2023-02-08T05:57:52;103461.06;;;-2.00;76.46
77110;BME280;66062;52.464;16.922;2023-02-08T06:00:18;103469.81;;;-1.98;76.76
77110;BME280;66062;52.464;16.922;2023-02-08T06:02:44;103465.53;;;-1.86;76.32
77110;BME280;66062;52.464;16.922;2023-02-08T06:05:09;103470.66;;;-1.98;76.49
77110;BME280;66062;52.464;16.922;2023-02-08T06:07:35;103467.19;;;-1.97;76.03
77110;BME280;66062;52.464;16.922;2023-02-08T06:10:00;103471.53;;;-2.00;76.09
77110;BME280;66062;52.464;16.922;2023-02-08T06:12:25;103471.59;;;-1.94;76.84
77110;BME280;66062;52.464;16.922;2023-02-08T06:14:51;103477.72;;;-1.89;76.41
77110;BME280;66062;52.464;16.922;2023-02-08T06:17:18;103481.22;;;-1.86;76.76
77110;BME280;66062;52.464;16.922;2023-02-08T06:19:43;103474.19;;;-1.93;76.98
77110;BME280;66062;52.464;16.922;2023-02-08T06:22:09;103481.22;;;-1.83;76.65
77110;BME280;66062;52.464;16.922;2023-02-08T06:24:34;103476.84;;;-1.87;76.62
77110;BME280;66062;52.464;16.922;2023-02-08T06:26:59;103488.22;;;-1.82;76.69
77110;BME280;66062;52.464;16.922;2023-02-08T06:29:25;103493.50;;;-1.73;75.96
77110;BME280;66062;52.464;16.922;2023-02-08T06:31:50;103492.66;;;-1.70;75.53
77110;BME280;66062;52.464;16.922;2023-02-08T06:34:15;103488.34;;;-1.57;74.58
77110;BME280;66062;52.464;16.922;2023-02-08T06:36:41;103497.94;;;-1.64;74.76
77110;BME280;66062;52.464;16.922;2023-02-08T06:39:06;103493.56;;;-1.68;75.32
77110;BME280;66062;52.464;16.922;2023-02-08T06:41:32;103493.47;;;-1.82;76.08
77110;BME280;66062;52.464;16.922;2023-02-08T06:43:57;103497.09;;;-1.63;75.23
77110;BME280;66062;52.464;16.922;2023-02-08T06:46:25;103497.09;;;-1.52;74.50
77110;BME280;66062;52.464;16.922;2023-02-08T06:48:50;103504.97;;;-1.54;75.00
77110;BME280;66062;52.464;16.922;2023-02-08T06:51:16;103499.72;;;-1.55;75.03
77110;BME280;66062;52.464;16.922;2023-02-08T06:53:41;103501.44;;;-1.57;74.95
77110;BME280;66062;52.464;16.922;2023-02-08T06:56:06;103505.00;;;-1.46;74.81
77110;BME280;66062;52.464;16.922;2023-02-08T06:58:32;103500.69;;;-1.37;72.69
77110;BME280;66062;52.464;16.922;2023-02-08T07:00:57;103506.81;;;-1.35;72.97
77110;BME280;66062;52.464;16.922;2023-02-08T07:03:23;103512.00;;;-1.44;73.01
77110;BME280;66062;52.464;16.922;2023-02-08T07:05:48;103521.63;;;-1.41;72.71
77110;BME280;66062;52.464;16.922;2023-02-08T07:08:14;103514.63;;;-1.48;72.54
77110;BME280;66062;52.464;16.922;2023-02-08T07:10:39;103510.25;;;-1.42;72.76
77110;BME280;66062;52.464;16.922;2023-02-08T07:13:05;103506.69;;;-1.59;73.16
77110;BME280;66062;52.464;16.922;2023-02-08T07:15:31;103510.28;;;-1.40;72.62
77110;BME280;66062;52.464;16.922;2023-02-08T07:17:57;103506.78;;;-1.41;72.70
77110;BME280;66062;52.464;16.922;2023-02-08T07:20:23;103503.34;;;-1.31;71.84
77110;BME280;66062;52.464;16.922;2023-02-08T07:22:49;103504.22;;;-1.28;71.93
77110;BME280;66062;52.464;16.922;2023-02-08T07:25:14;103512.09;;;-1.24;72.02
77110;BME280;66062;52.464;16.922;2023-02-08T07:27:39;103515.66;;;-1.13;71.05
77110;BME280;66062;52.464;16.922;2023-02-08T07:30:05;103503.41;;;-1.17;71.01
77110;BME280;66062;52.464;16.922;2023-02-08T07:32:33;103500.75;;;-1.21;70.62
77110;BME280;66062;52.464;16.922;2023-02-08T07:34:58;103507.72;;;-1.28;70.23
77110;BME280;66062;52.464;16.922;2023-02-08T07:37:24;103507.78;;;-1.13;70.26
77110;BME280;66062;52.464;16.922;2023-02-08T07:39:50;103502.53;;;-1.13;70.86
77110;BME280;66062;52.464;16.922;2023-02-08T07:42:15;103495.50;;;-1.29;70.78
77110;BME280;66062;52.464;16.922;2023-02-08T07:44:40;103499.91;;;-1.17;69.96
77110;BME280;66062;52.464;16.922;2023-02-08T07:47:06;103503.44;;;-1.08;69.99
77110;BME280;66062;52.464;16.922;2023-02-08T07:49:32;103493.84;;;-1.00;69.96
77110;BME280;66062;52.464;16.922;2023-02-08T07:52:00;103490.31;;;-1.17;69.97
77110;BME280;66062;52.464;16.922;2023-02-08T07:54:27;103490.34;;;-0.99;69.38
77110;BME280;66062;52.464;16.922;2023-02-08T07:56:52;103490.38;;;-0.90;68.70
77110;BME280;66062;52.464;16.922;2023-02-08T07:59:18;103478.19;;;-0.81;69.03
77110;BME280;66062;52.464;16.922;2023-02-08T08:01:43;103481.69;;;-0.69;68.56
77110;BME280;66062;52.464;16.922;2023-02-08T08:04:09;103473.84;;;-0.52;68.05
77110;BME280;66062;52.464;16.922;2023-02-08T08:06:34;103477.31;;;-0.61;68.40
77110;BME280;66062;52.464;16.922;2023-02-08T08:09:00;103478.03;;;0.58;64.53
77110;BME280;66062;52.464;16.922;2023-02-08T08:11:25;103469.78;;;2.26;58.41
77110;BME280;66062;52.464;16.922;2023-02-08T08:13:51;103466.47;;;3.41;54.17
77110;BME280;66062;52.464;16.922;2023-02-08T08:16:17;103462.00;;;3.97;51.90
77110;BME280;66062;52.464;16.922;2023-02-08T08:18:43;103456.28;;;4.66;49.56
77110;BME280;66062;52.464;16.922;2023-02-08T08:21:09;103455.53;;;4.58;49.56
77110;BME280;66062;52.464;16.922;2023-02-08T08:23:34;103451.31;;;6.32;45.90
77110;BME280;66062;52.464;16.922;2023-02-08T08:26:15;103455.81;;;5.63;46.48
77110;BME280;66062;52.464;16.922;2023-02-08T08:28:41;103464.44;;;4.54;48.97
77110;BME280;66062;52.464;16.922;2023-02-08T08:31:11;103463.81;;;6.29;45.11
77110;BME280;66062;52.464;16.922;2023-02-08T08:33:37;103463.78;;;6.91;42.46
77110;BME280;66062;52.464;16.922;2023-02-08T08:36:03;103465.50;;;8.49;39.88
77110;BME280;66062;52.464;16.922;2023-02-08T08:38:28;103448.63;;;8.50;38.40
77110;BME280;66062;52.464;16.922;2023-02-08T08:40:54;103461.97;;;9.19;37.63
77110;BME280;66062;52.464;16.922;2023-02-08T08:43:19;103461.81;;;8.53;38.30
77110;BME280;66062;52.464;16.922;2023-02-08T08:45:44;103450.91;;;9.06;37.80
77110;BME280;66062;52.464;16.922;2023-02-08T08:48:10;103458.66;;;8.67;38.03
77110;BME280;66062;52.464;16.922;2023-02-08T08:50:35;103464.03;;;9.11;37.32
77110;BME280;66062;52.464;16.922;2023-02-08T08:53:01;103457.31;;;10.67;34.30
77110;BME280;66062;52.464;16.922;2023-02-08T08:55:26;103467.31;;;9.61;35.88
77110;BME280;66062;52.464;16.922;2023-02-08T08:57:52;103465.41;;;6.95;39.33
77110;BME280;66062;52.464;16.922;2023-02-08T09:00:18;103474.16;;;6.38;41.81
77110;BME280;66062;52.464;16.922;2023-02-08T09:02:43;103474.91;;;6.72;41.11
77110;BME280;66062;52.464;16.922;2023-02-08T09:05:09;103484.31;;;5.88;43.70
77110;BME280;66062;52.464;16.922;2023-02-08T09:07:34;103475.97;;;8.54;38.62
77110;BME280;66062;52.464;16.922;2023-02-08T09:10:00;103467.94;;;8.32;38.99
77110;BME280;66062;52.464;16.922;2023-02-08T09:12:28;103473.13;;;8.35;37.67
77110;BME280;66062;52.464;16.922;2023-02-08T09:14:53;103475.38;;;8.21;39.10
77110;BME280;66062;52.464;16.922;2023-02-08T09:17:19;103472.34;;;8.07;38.28
77110;BME280;66062;52.464;16.922;2023-02-08T09:19:44;103476.94;;;5.99;43.92
77110;BME280;66062;52.464;16.922;2023-02-08T09:22:12;103469.22;;;8.69;38.19
77110;BME280;66062;52.464;16.922;2023-02-08T09:24:37;103487.09;;;8.65;37.64
77110;BME280;66062;52.464;16.922;2023-02-08T09:27:05;103473.81;;;7.09;40.23
77110;BME280;66062;52.464;16.922;2023-02-08T09:29:31;103475.19;;;8.27;38.71
77110;BME280;66062;52.464;16.922;2023-02-08T09:31:58;103480.84;;;8.89;38.78
77110;BME280;66062;52.464;16.922;2023-02-08T09:34:23;103464.63;;;9.82;35.05
77110;BME280;66062;52.464;16.922;2023-02-08T09:36:49;103471.50;;;9.46;36.29
77110;BME280;66062;52.464;16.922;2023-02-08T09:39:17;103459.81;;;9.91;35.40
77110;BME280;66062;52.464;16.922;2023-02-08T09:42:10;103463.50;;;9.88;34.09
77110;BME280;66062;52.464;16.922;2023-02-08T09:45:07;103464.72;;;6.88;38.97
77110;BME280;66062;52.464;16.922;2023-02-08T09:47:51;103474.78;;;8.86;36.90
77110;BME280;66062;52.464;16.922;2023-02-08T09:50:38;103472.81;;;8.91;36.65
77110;BME280;66062;52.464;16.922;2023-02-08T09:53:14;103462.91;;;10.02;35.51
77110;BME280;66062;52.464;16.922;2023-02-08T09:55:48;103464.00;;;11.86;31.94
77110;BME280;66062;52.464;16.922;2023-02-08T10:00:53;103462.66;;;11.42;32.56
77110;BME280;66062;52.464;16.922;2023-02-08T10:03:33;103470.97;;;9.80;35.70
77110;BME280;66062;52.464;16.922;2023-02-08T10:06:01;103475.31;;;9.82;33.51
77110;BME280;66062;52.464;16.922;2023-02-08T10:08:28;103466.16;;;8.33;37.48
77110;BME280;66062;52.464;16.922;2023-02-08T10:24:04;103446.00;;;10.62;34.36
77110;BME280;66062;52.464;16.922;2023-02-08T10:26:39;103442.25;;;10.85;32.40
77110;BME280;66062;52.464;16.922;2023-02-08T10:29:18;103456.44;;;9.23;35.00
77110;BME280;66062;52.464;16.922;2023-02-08T10:34:59;103446.69;;;8.29;37.11
77110;BME280;66062;52.464;16.922;2023-02-08T10:37:30;103453.38;;;8.42;37.47
77110;BME280;66062;52.464;16.922;2023-02-08T10:40:12;103449.34;;;8.31;38.13
77110;BME280;66062;52.464;16.922;2023-02-08T10:42:40;103437.28;;;8.21;39.04
77110;BME280;66062;52.464;16.922;2023-02-08T10:45:46;103442.34;;;8.53;37.07
77110;BME280;66062;52.464;16.922;2023-02-08T10:48:05;103434.38;;;8.98;37.59
77110;BME280;66062;52.464;16.922;2023-02-08T10:50:41;103447.47;;;8.08;38.21
77110;BME280;66062;52.464;16.922;2023-02-08T10:53:13;103427.75;;;9.08;36.50
77110;BME280;66062;52.464;16.922;2023-02-08T10:55:44;103430.72;;;9.44;35.88
77110;BME280;66062;52.464;16.922;2023-02-08T10:58:18;103427.19;;;7.81;38.09
77110;BME280;66062;52.464;16.922;2023-02-08T11:00:45;103424.47;;;9.65;35.60
77110;BME280;66062;52.464;16.922;2023-02-08T11:03:17;103422.22;;;9.13;36.05
77110;BME280;66062;52.464;16.922;2023-02-08T11:05:44;103419.28;;;8.52;37.16
77110;BME280;66062;52.464;16.922;2023-02-08T11:08:13;103417.50;;;8.52;37.73
77110;BME280;66062;52.464;16.922;2023-02-08T11:10:45;103424.50;;;8.78;37.03
77110;BME280;66062;52.464;16.922;2023-02-08T11:13:19;103419.44;;;9.16;36.98
77110;BME280;66062;52.464;16.922;2023-02-08T11:15:55;103411.59;;;8.89;37.08
77110;BME280;66062;52.464;16.922;2023-02-08T11:18:46;103406.97;;;9.16;36.73
77110;BME280;66062;52.464;16.922;2023-02-08T11:21:32;103405.34;;;9.76;35.68
77110;BME280;66062;52.464;16.922;2023-02-08T11:24:24;103401.03;;;9.31;35.22
77110;BME280;66062;52.464;16.922;2023-02-08T11:26:51;103410.47;;;8.02;38.55
77110;BME280;66062;52.464;16.922;2023-02-08T11:29:20;103416.34;;;8.36;38.10
77110;BME280;66062;52.464;16.922;2023-02-08T11:32:14;103410.19;;;9.46;35.92
77110;BME280;66062;52.464;16.922;2023-02-08T11:34:40;103401.97;;;9.09;36.86
77110;BME280;66062;52.464;16.922;2023-02-08T11:37:18;103405.50;;;8.64;36.88
77110;BME280;66062;52.464;16.922;2023-02-08T11:39:55;103417.09;;;8.63;37.13
77110;BME280;66062;52.464;16.922;2023-02-08T11:42:24;103414.41;;;8.15;38.25
77110;BME280;66062;52.464;16.922;2023-02-08T11:44:52;103416.63;;;7.78;39.28
77110;BME280;66062;52.464;16.922;2023-02-08T11:47:22;103405.56;;;8.14;38.81
77110;BME280;66062;52.464;16.922;2023-02-08T11:49:53;103405.44;;;9.74;36.44
77110;BME280;66062;52.464;16.922;2023-02-08T11:52:28;103399.03;;;9.78;35.37
77110;BME280;66062;52.464;16.922;2023-02-08T11:55:11;103395.56;;;8.91;37.39
77110;BME280;66062;52.464;16.922;2023-02-08T11:57:52;103398.88;;;9.19;36.90
77110;BME280;66062;52.464;16.922;2023-02-08T12:00:27;103388.16;;;8.06;39.34
77110;BME280;66062;52.464;16.922;2023-02-08T12:03:20;103398.25;;;7.71;39.87
77110;BME280;66062;52.464;16.922;2023-02-08T12:17:50;103388.84;;;7.09;41.78
77110;BME280;66062;52.464;16.922;2023-02-08T12:20:36;103380.75;;;6.85;42.15
77110;BME280;66062;52.464;16.922;2023-02-08T12:31:37;103375.59;;;7.35;42.48
77110;BME280;66062;52.464;16.922;2023-02-08T12:34:21;103374.09;;;6.43;43.79
77110;BME280;66062;52.464;16.922;2023-02-08T12:53:57;103360.00;;;8.24;39.63
77110;BME280;66062;52.464;16.922;2023-02-08T12:56:29;103359.97;;;7.26;42.70
77110;BME280;66062;52.464;16.922;2023-02-08T12:58:59;103354.53;;;6.75;43.83
77110;BME280;66062;52.464;16.922;2023-02-08T13:01:29;103358.72;;;6.54;46.39
77110;BME280;66062;52.464;16.922;2023-02-08T13:04:01;103365.81;;;6.54;44.27
77110;BME280;66062;52.464;16.922;2023-02-08T13:06:51;103360.75;;;7.02;43.78
77110;BME280;66062;52.464;16.922;2023-02-08T13:09:40;103368.56;;;6.78;43.11
77110;BME280;66062;52.464;16.922;2023-02-08T13:12:16;103372.13;;;6.50;44.10
77110;BME280;66062;52.464;16.922;2023-02-08T13:14:49;103361.25;;;5.65;45.70
77110;BME280;66062;52.464;16.922;2023-02-08T13:17:21;103364.50;;;4.29;48.85
77110;BME280;66062;52.464;16.922;2023-02-08T13:20:04;103363.41;;;5.15;47.57
77110;BME280;66062;52.464;16.922;2023-02-08T13:22:36;103348.47;;;6.13;45.84
77110;BME280;66062;52.464;16.922;2023-02-08T13:25:06;103342.06;;;6.49;44.87
77110;BME280;66062;52.464;16.922;2023-02-08T13:27:38;103346.97;;;6.91;43.71
77110;BME280;66062;52.464;16.922;2023-02-08T13:30:04;103338.47;;;7.32;42.00
77110;BME280;66062;52.464;16.922;2023-02-08T13:32:38;103334.13;;;7.56;41.93
77110;BME280;66062;52.464;16.922;2023-02-08T13:35:16;103330.53;;;6.78;43.91
77110;BME280;66062;52.464;16.922;2023-02-08T13:37:49;103330.13;;;5.39;46.59
77110;BME280;66062;52.464;16.922;2023-02-08T13:40:29;103341.22;;;4.05;50.73
77110;BME280;66062;52.464;16.922;2023-02-08T13:43:00;103336.25;;;3.88;51.60
77110;BME280;66062;52.464;16.922;2023-02-08T13:45:32;103337.34;;;3.78;52.67
77110;BME280;66062;52.464;16.922;2023-02-08T13:48:03;103343.88;;;3.58;54.01
77110;BME280;66062;52.464;16.922;2023-02-08T13:51:06;103344.47;;;3.75;54.45
77110;BME280;66062;52.464;16.922;2023-02-08T13:56:03;103339.31;;;3.18;56.17
77110;BME280;66062;52.464;16.922;2023-02-08T14:01:26;103345.72;;;3.02;56.92
77110;BME280;66062;52.464;16.922;2023-02-08T14:06:45;103340.84;;;2.78;58.15
77110;BME280;66062;52.464;16.922;2023-02-08T14:09:22;103337.97;;;2.32;59.58
77110;BME280;66062;52.464;16.922;2023-02-08T14:11:56;103332.97;;;2.09;60.33
77110;BME280;66062;52.464;16.922;2023-02-08T14:14:30;103337.78;;;1.73;61.45
77110;BME280;66062;52.464;16.922;2023-02-08T14:19:29;103327.28;;;2.42;59.22
77110;BME280;66062;52.464;16.922;2023-02-08T14:24:33;103322.16;;;2.33;58.99
77110;BME280;66062;52.464;16.922;2023-02-08T14:32:24;103319.34;;;1.77;61.36
77110;BME280;66062;52.464;16.922;2023-02-08T14:34:58;103323.06;;;1.57;61.76
77110;BME280;66062;52.464;16.922;2023-02-08T14:37:30;103317.97;;;1.42;63.15
77110;BME280;66062;52.464;16.922;2023-02-08T14:45:31;103310.28;;;1.18;64.14
77110;BME280;66062;52.464;16.922;2023-02-08T14:50:52;103307.72;;;1.09;65.90
77110;BME280;66062;52.464;16.922;2023-02-08T14:53:29;103305.09;;;1.09;66.14
77110;BME280;66062;52.464;16.922;2023-02-08T14:56:05;103306.94;;;0.99;66.66
77110;BME280;66062;52.464;16.922;2023-02-08T14:58:43;103312.25;;;0.93;67.27
77110;BME280;66062;52.464;16.922;2023-02-08T15:01:17;103305.31;;;0.86;68.07
77110;BME280;66062;52.464;16.922;2023-02-08T15:03:46;103309.66;;;0.89;68.11